sensor_id;sensor_type;location;lat;lon;timestamp;temperature;humidity
67555;HTU21D;54385;53.516;49.456;2022-08-01T00:01:15;19.68;80.49
67555;HTU21D;54385;53.516;49.456;2022-08-01T00:03:41;19.66;80.50
67555;HTU21D;54385;53.516;49.456;2022-08-01T00:06:07;19.65;80.52
67555;HTU21D;54385;53.516;49.456;2022-08-01T00:08:34;19.63;80.52
67555;HTU21D;54385;53.516;49.456;2022-08-01T00:11:00;19.61;80.65
67555;HTU21D;54385;53.516;49.456;2022-08-01T00:13:26;19.58;80.71
67555;HTU21D;54385;53.516;49.456;2022-08-01T00:15:53;19.62;80.57
67555;HTU21D;54385;53.516;49.456;2022-08-01T00:18:19;19.62;80.49
67555;HTU21D;54385;53.516;49.456;2022-08-01T00:20:46;19.66;80.36
67555;HTU21D;54385;53.516;49.456;2022-08-01T00:23:12;19.69;80.15
67555;HTU21D;54385;53.516;49.456;2022-08-01T00:25:39;19.72;79.99
67555;HTU21D;54385;53.516;49.456;2022-08-01T00:28:05;19.71;79.91
67555;HTU21D;54385;53.516;49.456;2022-08-01T00:30:35;19.68;80.03
67555;HTU21D;54385;53.516;49.456;2022-08-01T00:33:02;19.67;80.12
67555;HTU21D;54385;53.516;49.456;2022-08-01T00:35:29;19.61;80.13
67555;HTU21D;54385;53.516;49.456;2022-08-01T00:37:55;19.46;80.52
67555;HTU21D;54385;53.516;49.456;2022-08-01T00:40:22;19.37;80.81
67555;HTU21D;54385;53.516;49.456;2022-08-01T00:42:48;19.26;81.07
67555;HTU21D;54385;53.516;49.456;2022-08-01T00:45:15;19.17;81.48
67555;HTU21D;54385;53.516;49.456;2022-08-01T00:47:41;19.21;81.39
67555;HTU21D;54385;53.516;49.456;2022-08-01T00:50:09;19.21;81.39
67555;HTU21D;54385;53.516;49.456;2022-08-01T00:52:36;19.16;81.43
67555;HTU21D;54385;53.516;49.456;2022-08-01T00:55:03;19.20;81.32
67555;HTU21D;54385;53.516;49.456;2022-08-01T00:57:30;19.12;81.34
67555;HTU21D;54385;53.516;49.456;2022-08-01T00:59:56;19.06;81.59
67555;HTU21D;54385;53.516;49.456;2022-08-01T01:02:23;19.03;81.68
67555;HTU21D;54385;53.516;49.456;2022-08-01T01:04:49;19.02;81.66
67555;HTU21D;54385;53.516;49.456;2022-08-01T01:12:38;19.06;81.72
67555;HTU21D;54385;53.516;49.456;2022-08-01T01:15:33;19.11;81.41
67555;HTU21D;54385;53.516;49.456;2022-08-01T01:20:45;19.15;81.14
67555;HTU21D;54385;53.516;49.456;2022-08-01T01:26:37;19.18;80.92
67555;HTU21D;54385;53.516;49.456;2022-08-01T01:29:08;19.20;80.69
67555;HTU21D;54385;53.516;49.456;2022-08-01T01:34:33;19.28;80.11
67555;HTU21D;54385;53.516;49.456;2022-08-01T01:37:02;19.33;79.97
67555;HTU21D;54385;53.516;49.456;2022-08-01T01:39:30;19.41;79.62
67555;HTU21D;54385;53.516;49.456;2022-08-01T01:41:57;19.46;79.20
67555;HTU21D;54385;53.516;49.456;2022-08-01T01:44:26;19.47;78.79
67555;HTU21D;54385;53.516;49.456;2022-08-01T01:46:53;19.44;78.79
67555;HTU21D;54385;53.516;49.456;2022-08-01T01:49:25;19.47;78.51
67555;HTU21D;54385;53.516;49.456;2022-08-01T01:51:57;19.48;78.33
67555;HTU21D;54385;53.516;49.456;2022-08-01T01:54:34;19.54;78.30
67555;HTU21D;54385;53.516;49.456;2022-08-01T01:57:03;19.60;77.88
67555;HTU21D;54385;53.516;49.456;2022-08-01T01:59:32;19.60;77.82
67555;HTU21D;54385;53.516;49.456;2022-08-01T02:02:03;19.52;78.11
67555;HTU21D;54385;53.516;49.456;2022-08-01T02:04:32;19.43;78.38
67555;HTU21D;54385;53.516;49.456;2022-08-01T02:07:01;19.38;78.59
67555;HTU21D;54385;53.516;49.456;2022-08-01T02:09:27;19.43;78.58
67555;HTU21D;54385;53.516;49.456;2022-08-01T02:11:55;19.48;78.22
67555;HTU21D;54385;53.516;49.456;2022-08-01T02:14:25;19.56;77.92
67555;HTU21D;54385;53.516;49.456;2022-08-01T02:16:54;19.67;77.59
67555;HTU21D;54385;53.516;49.456;2022-08-01T02:19:23;19.74;77.32
67555;HTU21D;54385;53.516;49.456;2022-08-01T02:22:21;19.82;76.86
67555;HTU21D;54385;53.516;49.456;2022-08-01T02:30:35;20.01;76.47
67555;HTU21D;54385;53.516;49.456;2022-08-01T02:33:11;20.02;76.44
67555;HTU21D;54385;53.516;49.456;2022-08-01T02:35:41;20.11;76.21
67555;HTU21D;54385;53.516;49.456;2022-08-01T02:38:10;20.15;75.99
67555;HTU21D;54385;53.516;49.456;2022-08-01T02:40:41;20.26;75.70
67555;HTU21D;54385;53.516;49.456;2022-08-01T02:43:09;20.24;75.50
67555;HTU21D;54385;53.516;49.456;2022-08-01T02:45:42;20.27;75.50
67555;HTU21D;54385;53.516;49.456;2022-08-01T02:48:14;20.32;75.27
67555;HTU21D;54385;53.516;49.456;2022-08-01T02:50:45;20.35;75.12
67555;HTU21D;54385;53.516;49.456;2022-08-01T02:53:14;20.36;75.01
67555;HTU21D;54385;53.516;49.456;2022-08-01T02:55:43;20.36;74.79
67555;HTU21D;54385;53.516;49.456;2022-08-01T02:58:15;20.34;74.95
67555;HTU21D;54385;53.516;49.456;2022-08-01T03:00:46;20.33;74.76
67555;HTU21D;54385;53.516;49.456;2022-08-01T03:03:14;20.29;75.09
67555;HTU21D;54385;53.516;49.456;2022-08-01T03:05:43;20.27;75.12
67555;HTU21D;54385;53.516;49.456;2022-08-01T03:08:11;20.25;75.14
67555;HTU21D;54385;53.516;49.456;2022-08-01T03:10:42;20.25;75.21
67555;HTU21D;54385;53.516;49.456;2022-08-01T03:13:11;20.22;75.14
67555;HTU21D;54385;53.516;49.456;2022-08-01T03:15:40;20.17;75.31
67555;HTU21D;54385;53.516;49.456;2022-08-01T03:18:09;20.14;75.43
67555;HTU21D;54385;53.516;49.456;2022-08-01T03:20:41;20.14;75.53
67555;HTU21D;54385;53.516;49.456;2022-08-01T03:23:10;20.14;75.54
67555;HTU21D;54385;53.516;49.456;2022-08-01T03:25:39;20.18;75.46
67555;HTU21D;54385;53.516;49.456;2022-08-01T03:28:08;20.26;75.33
67555;HTU21D;54385;53.516;49.456;2022-08-01T03:30:37;20.33;75.15
67555;HTU21D;54385;53.516;49.456;2022-08-01T03:33:04;20.47;74.83
67555;HTU21D;54385;53.516;49.456;2022-08-01T03:35:34;20.57;74.67
67555;HTU21D;54385;53.516;49.456;2022-08-01T03:38:03;20.60;74.38
67555;HTU21D;54385;53.516;49.456;2022-08-01T03:40:40;20.66;74.06
67555;HTU21D;54385;53.516;49.456;2022-08-01T03:43:40;20.69;73.87
67555;HTU21D;54385;53.516;49.456;2022-08-01T03:46:16;20.69;74.16
67555;HTU21D;54385;53.516;49.456;2022-08-01T03:48:47;20.78;74.12
67555;HTU21D;54385;53.516;49.456;2022-08-01T03:51:15;20.89;73.88
67555;HTU21D;54385;53.516;49.456;2022-08-01T03:53:47;20.87;73.77
67555;HTU21D;54385;53.516;49.456;2022-08-01T03:56:18;20.92;73.77
67555;HTU21D;54385;53.516;49.456;2022-08-01T03:58:46;21.01;73.39
67555;HTU21D;54385;53.516;49.456;2022-08-01T04:01:13;20.99;73.03
67555;HTU21D;54385;53.516;49.456;2022-08-01T04:03:41;20.96;72.99
67555;HTU21D;54385;53.516;49.456;2022-08-01T04:06:08;20.96;73.19
67555;HTU21D;54385;53.516;49.456;2022-08-01T04:08:38;21.01;73.22
67555;HTU21D;54385;53.516;49.456;2022-08-01T04:11:05;21.04;73.17
67555;HTU21D;54385;53.516;49.456;2022-08-01T04:13:32;21.13;73.16
67555;HTU21D;54385;53.516;49.456;2022-08-01T04:15:59;21.31;72.72
67555;HTU21D;54385;53.516;49.456;2022-08-01T04:18:26;21.51;72.36
67555;HTU21D;54385;53.516;49.456;2022-08-01T04:20:52;21.51;71.86
67555;HTU21D;54385;53.516;49.456;2022-08-01T04:23:23;21.50;71.87
67555;HTU21D;54385;53.516;49.456;2022-08-01T04:25:51;21.46;72.04
67555;HTU21D;54385;53.516;49.456;2022-08-01T04:28:19;21.49;72.06
67555;HTU21D;54385;53.516;49.456;2022-08-01T04:30:50;21.54;72.06
67555;HTU21D;54385;53.516;49.456;2022-08-01T04:33:19;21.58;72.23
67555;HTU21D;54385;53.516;49.456;2022-08-01T04:35:47;21.63;72.10
67555;HTU21D;54385;53.516;49.456;2022-08-01T04:38:22;21.72;72.12
67555;HTU21D;54385;53.516;49.456;2022-08-01T04:40:54;21.91;71.49
67555;HTU21D;54385;53.516;49.456;2022-08-01T04:43:21;21.99;70.71
67555;HTU21D;54385;53.516;49.456;2022-08-01T04:45:47;22.05;70.29
67555;HTU21D;54385;53.516;49.456;2022-08-01T04:48:17;22.20;69.90
67555;HTU21D;54385;53.516;49.456;2022-08-01T04:50:45;22.21;70.03
67555;HTU21D;54385;53.516;49.456;2022-08-01T04:53:14;22.34;69.84
67555;HTU21D;54385;53.516;49.456;2022-08-01T04:55:43;22.47;69.66
67555;HTU21D;54385;53.516;49.456;2022-08-01T04:58:10;22.50;69.53
67555;HTU21D;54385;53.516;49.456;2022-08-01T05:00:37;22.50;69.63
67555;HTU21D;54385;53.516;49.456;2022-08-01T05:03:04;22.55;69.49
67555;HTU21D;54385;53.516;49.456;2022-08-01T05:05:30;22.64;69.20
67555;HTU21D;54385;53.516;49.456;2022-08-01T05:07:57;22.72;68.85
67555;HTU21D;54385;53.516;49.456;2022-08-01T05:10:27;22.71;68.67
67555;HTU21D;54385;53.516;49.456;2022-08-01T05:12:54;22.73;68.46
67555;HTU21D;54385;53.516;49.456;2022-08-01T05:15:20;22.91;68.39
67555;HTU21D;54385;53.516;49.456;2022-08-01T05:17:47;23.01;67.61
67555;HTU21D;54385;53.516;49.456;2022-08-01T05:20:14;23.10;67.59
67555;HTU21D;54385;53.516;49.456;2022-08-01T05:22:41;23.26;66.16
67555;HTU21D;54385;53.516;49.456;2022-08-01T05:25:08;23.28;66.36
67555;HTU21D;54385;53.516;49.456;2022-08-01T05:27:35;23.47;66.08
67555;HTU21D;54385;53.516;49.456;2022-08-01T05:30:09;23.60;65.45
67555;HTU21D;54385;53.516;49.456;2022-08-01T05:32:37;23.58;65.01
67555;HTU21D;54385;53.516;49.456;2022-08-01T05:35:04;23.49;65.02
67555;HTU21D;54385;53.516;49.456;2022-08-01T05:37:31;23.56;64.92
67555;HTU21D;54385;53.516;49.456;2022-08-01T05:39:57;23.56;64.41
67555;HTU21D;54385;53.516;49.456;2022-08-01T05:42:24;23.66;64.27
67555;HTU21D;54385;53.516;49.456;2022-08-01T05:44:50;23.76;63.70
67555;HTU21D;54385;53.516;49.456;2022-08-01T05:47:17;23.74;63.40
67555;HTU21D;54385;53.516;49.456;2022-08-01T05:49:45;23.74;63.34
67555;HTU21D;54385;53.516;49.456;2022-08-01T05:52:12;23.81;63.16
67555;HTU21D;54385;53.516;49.456;2022-08-01T05:54:38;23.94;62.29
67555;HTU21D;54385;53.516;49.456;2022-08-01T05:57:05;24.14;61.98
67555;HTU21D;54385;53.516;49.456;2022-08-01T05:59:31;24.34;61.51
67555;HTU21D;54385;53.516;49.456;2022-08-01T06:01:58;24.40;60.63
67555;HTU21D;54385;53.516;49.456;2022-08-01T06:04:24;24.45;60.90
67555;HTU21D;54385;53.516;49.456;2022-08-01T06:06:51;24.59;60.28
67555;HTU21D;54385;53.516;49.456;2022-08-01T06:09:17;24.70;59.44
67555;HTU21D;54385;53.516;49.456;2022-08-01T06:11:44;24.77;59.22
67555;HTU21D;54385;53.516;49.456;2022-08-01T06:14:14;24.97;59.13
67555;HTU21D;54385;53.516;49.456;2022-08-01T06:16:43;25.06;58.40
67555;HTU21D;54385;53.516;49.456;2022-08-01T06:19:09;25.05;58.67
67555;HTU21D;54385;53.516;49.456;2022-08-01T06:21:36;25.15;57.99
67555;HTU21D;54385;53.516;49.456;2022-08-01T06:24:03;25.22;58.19
67555;HTU21D;54385;53.516;49.456;2022-08-01T06:26:30;25.24;57.62
67555;HTU21D;54385;53.516;49.456;2022-08-01T06:28:57;25.27;57.94
67555;HTU21D;54385;53.516;49.456;2022-08-01T06:31:23;25.34;57.00
67555;HTU21D;54385;53.516;49.456;2022-08-01T06:33:50;25.59;56.29
67555;HTU21D;54385;53.516;49.456;2022-08-01T06:36:16;25.63;55.70
67555;HTU21D;54385;53.516;49.456;2022-08-01T06:38:45;25.58;54.71
67555;HTU21D;54385;53.516;49.456;2022-08-01T06:41:12;25.40;54.97
67555;HTU21D;54385;53.516;49.456;2022-08-01T06:43:39;25.46;54.71
67555;HTU21D;54385;53.516;49.456;2022-08-01T06:46:08;25.51;54.46
67555;HTU21D;54385;53.516;49.456;2022-08-01T06:48:35;25.49;54.79
67555;HTU21D;54385;53.516;49.456;2022-08-01T06:51:05;25.42;55.26
67555;HTU21D;54385;53.516;49.456;2022-08-01T06:53:38;25.31;55.56
67555;HTU21D;54385;53.516;49.456;2022-08-01T06:56:06;25.27;56.00
67555;HTU21D;54385;53.516;49.456;2022-08-01T06:58:32;25.28;56.05
67555;HTU21D;54385;53.516;49.456;2022-08-01T07:01:01;25.30;56.05
67555;HTU21D;54385;53.516;49.456;2022-08-01T07:03:27;25.40;55.65
67555;HTU21D;54385;53.516;49.456;2022-08-01T07:05:54;25.53;55.29
67555;HTU21D;54385;53.516;49.456;2022-08-01T07:08:21;25.64;54.26
67555;HTU21D;54385;53.516;49.456;2022-08-01T07:10:47;25.48;53.75
67555;HTU21D;54385;53.516;49.456;2022-08-01T07:13:19;25.69;53.28
67555;HTU21D;54385;53.516;49.456;2022-08-01T07:15:52;26.01;51.72
67555;HTU21D;54385;53.516;49.456;2022-08-01T07:18:23;26.53;50.63
67555;HTU21D;54385;53.516;49.456;2022-08-01T07:21:04;27.05;49.01
67555;HTU21D;54385;53.516;49.456;2022-08-01T07:23:35;27.01;49.90
67555;HTU21D;54385;53.516;49.456;2022-08-01T07:26:05;27.08;49.59
67555;HTU21D;54385;53.516;49.456;2022-08-01T07:28:36;26.92;49.68
67555;HTU21D;54385;53.516;49.456;2022-08-01T07:31:10;26.77;49.51
67555;HTU21D;54385;53.516;49.456;2022-08-01T07:33:45;26.92;50.12
67555;HTU21D;54385;53.516;49.456;2022-08-01T07:36:12;27.02;50.34
67555;HTU21D;54385;53.516;49.456;2022-08-01T07:38:38;27.02;49.56
67555;HTU21D;54385;53.516;49.456;2022-08-01T07:41:04;26.68;50.30
67555;HTU21D;54385;53.516;49.456;2022-08-01T07:43:31;26.62;50.65
67555;HTU21D;54385;53.516;49.456;2022-08-01T07:45:57;26.65;50.31
67555;HTU21D;54385;53.516;49.456;2022-08-01T07:48:27;26.68;49.89
67555;HTU21D;54385;53.516;49.456;2022-08-01T07:50:54;26.75;49.69
67555;HTU21D;54385;53.516;49.456;2022-08-01T07:53:21;26.80;47.83
67555;HTU21D;54385;53.516;49.456;2022-08-01T07:55:49;26.84;48.29
67555;HTU21D;54385;53.516;49.456;2022-08-01T07:58:16;27.15;47.91
67555;HTU21D;54385;53.516;49.456;2022-08-01T08:00:43;27.61;46.92
67555;HTU21D;54385;53.516;49.456;2022-08-01T08:03:10;27.56;46.76
67555;HTU21D;54385;53.516;49.456;2022-08-01T08:05:36;27.45;46.69
67555;HTU21D;54385;53.516;49.456;2022-08-01T08:08:06;27.31;47.09
67555;HTU21D;54385;53.516;49.456;2022-08-01T08:10:34;27.44;47.13
67555;HTU21D;54385;53.516;49.456;2022-08-01T08:13:00;27.45;46.82
67555;HTU21D;54385;53.516;49.456;2022-08-01T08:15:28;27.37;46.92
67555;HTU21D;54385;53.516;49.456;2022-08-01T08:17:55;27.35;46.17
67555;HTU21D;54385;53.516;49.456;2022-08-01T08:20:22;27.39;46.06
67555;HTU21D;54385;53.516;49.456;2022-08-01T08:22:53;27.14;46.44
67555;HTU21D;54385;53.516;49.456;2022-08-01T08:25:21;27.13;46.58
67555;HTU21D;54385;53.516;49.456;2022-08-01T08:27:48;27.15;46.58
67555;HTU21D;54385;53.516;49.456;2022-08-01T08:30:14;27.12;46.47
67555;HTU21D;54385;53.516;49.456;2022-08-01T08:32:41;27.10;46.83
67555;HTU21D;54385;53.516;49.456;2022-08-01T08:35:14;26.89;47.01
67555;HTU21D;54385;53.516;49.456;2022-08-01T08:37:40;26.78;47.95
67555;HTU21D;54385;53.516;49.456;2022-08-01T08:40:07;26.82;47.93
67555;HTU21D;54385;53.516;49.456;2022-08-01T08:42:34;26.93;47.54
67555;HTU21D;54385;53.516;49.456;2022-08-01T08:45:01;27.12;47.22
67555;HTU21D;54385;53.516;49.456;2022-08-01T08:47:28;27.75;45.59
67555;HTU21D;54385;53.516;49.456;2022-08-01T08:49:56;28.16;44.41
67555;HTU21D;54385;53.516;49.456;2022-08-01T08:52:23;28.13;44.96
67555;HTU21D;54385;53.516;49.456;2022-08-01T08:54:51;27.96;44.62
67555;HTU21D;54385;53.516;49.456;2022-08-01T08:57:19;27.69;43.80
67555;HTU21D;54385;53.516;49.456;2022-08-01T08:59:48;27.63;44.42
67555;HTU21D;54385;53.516;49.456;2022-08-01T09:02:22;27.63;44.63
67555;HTU21D;54385;53.516;49.456;2022-08-01T09:05:02;27.67;43.50
67555;HTU21D;54385;53.516;49.456;2022-08-01T09:07:32;27.80;43.26
67555;HTU21D;54385;53.516;49.456;2022-08-01T09:10:09;27.97;43.20
67555;HTU21D;54385;53.516;49.456;2022-08-01T09:13:05;28.26;42.44
67555;HTU21D;54385;53.516;49.456;2022-08-01T09:15:54;28.11;41.65
67555;HTU21D;54385;53.516;49.456;2022-08-01T09:18:35;28.13;41.71
67555;HTU21D;54385;53.516;49.456;2022-08-01T09:21:12;28.34;41.18
67555;HTU21D;54385;53.516;49.456;2022-08-01T09:23:51;28.59;41.13
67555;HTU21D;54385;53.516;49.456;2022-08-01T09:26:32;28.74;41.51
67555;HTU21D;54385;53.516;49.456;2022-08-01T09:28:59;28.84;41.28
67555;HTU21D;54385;53.516;49.456;2022-08-01T09:31:27;28.67;40.98
67555;HTU21D;54385;53.516;49.456;2022-08-01T09:33:57;28.47;40.59
67555;HTU21D;54385;53.516;49.456;2022-08-01T09:36:26;28.56;40.58
67555;HTU21D;54385;53.516;49.456;2022-08-01T09:38:54;28.60;40.52
67555;HTU21D;54385;53.516;49.456;2022-08-01T09:41:30;28.98;39.30
67555;HTU21D;54385;53.516;49.456;2022-08-01T09:43:57;29.05;39.49
67555;HTU21D;54385;53.516;49.456;2022-08-01T09:46:26;29.44;39.01
67555;HTU21D;54385;53.516;49.456;2022-08-01T09:48:57;29.86;37.90
67555;HTU21D;54385;53.516;49.456;2022-08-01T09:51:38;30.37;37.01
67555;HTU21D;54385;53.516;49.456;2022-08-01T09:54:06;30.41;37.17
67555;HTU21D;54385;53.516;49.456;2022-08-01T09:56:38;30.59;35.76
67555;HTU21D;54385;53.516;49.456;2022-08-01T09:59:05;30.63;36.52
67555;HTU21D;54385;53.516;49.456;2022-08-01T10:02:01;30.72;35.09
67555;HTU21D;54385;53.516;49.456;2022-08-01T10:04:33;30.87;35.66
67555;HTU21D;54385;53.516;49.456;2022-08-01T10:07:07;30.63;36.15
67555;HTU21D;54385;53.516;49.456;2022-08-01T10:09:48;30.79;34.15
67555;HTU21D;54385;53.516;49.456;2022-08-01T10:12:17;31.25;35.17
67555;HTU21D;54385;53.516;49.456;2022-08-01T10:14:51;31.05;36.00
67555;HTU21D;54385;53.516;49.456;2022-08-01T10:17:25;30.12;37.76
67555;HTU21D;54385;53.516;49.456;2022-08-01T10:19:52;30.45;38.66
67555;HTU21D;54385;53.516;49.456;2022-08-01T10:22:26;31.05;37.04
67555;HTU21D;54385;53.516;49.456;2022-08-01T10:24:57;31.46;35.06
67555;HTU21D;54385;53.516;49.456;2022-08-01T10:27:31;31.28;34.66
67555;HTU21D;54385;53.516;49.456;2022-08-01T10:30:04;30.82;36.25
67555;HTU21D;54385;53.516;49.456;2022-08-01T10:32:32;30.06;37.87
67555;HTU21D;54385;53.516;49.456;2022-08-01T10:35:02;29.50;39.10
67555;HTU21D;54385;53.516;49.456;2022-08-01T10:37:29;29.02;39.97
67555;HTU21D;54385;53.516;49.456;2022-08-01T10:39:56;28.80;40.38
67555;HTU21D;54385;53.516;49.456;2022-08-01T10:42:23;28.74;40.85
67555;HTU21D;54385;53.516;49.456;2022-08-01T10:44:49;28.67;41.21
67555;HTU21D;54385;53.516;49.456;2022-08-01T10:47:21;28.52;41.61
67555;HTU21D;54385;53.516;49.456;2022-08-01T10:50:24;28.19;41.95
67555;HTU21D;54385;53.516;49.456;2022-08-01T10:58:34;29.62;40.08
67555;HTU21D;54385;53.516;49.456;2022-08-01T11:01:25;29.94;39.11
67555;HTU21D;54385;53.516;49.456;2022-08-01T11:09:18;29.98;38.61
67555;HTU21D;54385;53.516;49.456;2022-08-01T11:12:06;29.47;39.94
67555;HTU21D;54385;53.516;49.456;2022-08-01T11:17:35;29.15;41.43
67555;HTU21D;54385;53.516;49.456;2022-08-01T11:20:10;29.37;41.11
67555;HTU21D;54385;53.516;49.456;2022-08-01T11:28:17;30.46;39.74
67555;HTU21D;54385;53.516;49.456;2022-08-01T11:30:46;31.20;38.25
67555;HTU21D;54385;53.516;49.456;2022-08-01T11:33:13;31.39;36.13
67555;HTU21D;54385;53.516;49.456;2022-08-01T11:38:42;31.86;34.92
67555;HTU21D;54385;53.516;49.456;2022-08-01T11:41:23;31.20;35.92
67555;HTU21D;54385;53.516;49.456;2022-08-01T11:44:04;31.31;36.57
67555;HTU21D;54385;53.516;49.456;2022-08-01T11:46:48;31.42;35.55
67555;HTU21D;54385;53.516;49.456;2022-08-01T11:49:26;31.81;34.84
67555;HTU21D;54385;53.516;49.456;2022-08-01T11:52:07;31.14;35.64
67555;HTU21D;54385;53.516;49.456;2022-08-01T11:54:43;30.06;36.69
67555;HTU21D;54385;53.516;49.456;2022-08-01T11:57:20;29.42;38.47
67555;HTU21D;54385;53.516;49.456;2022-08-01T11:59:50;29.66;38.17
67555;HTU21D;54385;53.516;49.456;2022-08-01T12:02:19;30.01;36.95
67555;HTU21D;54385;53.516;49.456;2022-08-01T12:04:51;31.00;36.12
67555;HTU21D;54385;53.516;49.456;2022-08-01T12:07:18;31.85;34.69
67555;HTU21D;54385;53.516;49.456;2022-08-01T12:09:45;31.71;34.77
67555;HTU21D;54385;53.516;49.456;2022-08-01T12:12:15;31.04;35.75
67555;HTU21D;54385;53.516;49.456;2022-08-01T12:14:45;30.28;37.35
67555;HTU21D;54385;53.516;49.456;2022-08-01T12:17:18;29.97;37.91
67555;HTU21D;54385;53.516;49.456;2022-08-01T12:19:49;29.50;38.72
67555;HTU21D;54385;53.516;49.456;2022-08-01T12:22:15;29.29;38.92
67555;HTU21D;54385;53.516;49.456;2022-08-01T12:24:42;28.95;39.55
67555;HTU21D;54385;53.516;49.456;2022-08-01T12:27:10;29.33;39.22
67555;HTU21D;54385;53.516;49.456;2022-08-01T12:29:40;29.19;39.83
67555;HTU21D;54385;53.516;49.456;2022-08-01T12:32:27;28.88;41.42
67555;HTU21D;54385;53.516;49.456;2022-08-01T12:34:54;28.61;41.55
67555;HTU21D;54385;53.516;49.456;2022-08-01T12:37:22;28.23;42.65
67555;HTU21D;54385;53.516;49.456;2022-08-01T12:39:49;27.67;43.62
67555;HTU21D;54385;53.516;49.456;2022-08-01T12:42:15;26.92;44.98
67555;HTU21D;54385;53.516;49.456;2022-08-01T12:44:44;26.45;46.70
67555;HTU21D;54385;53.516;49.456;2022-08-01T12:47:11;26.04;50.12
67555;HTU21D;54385;53.516;49.456;2022-08-01T12:49:41;25.92;50.81
67555;HTU21D;54385;53.516;49.456;2022-08-01T12:52:08;25.88;53.29
67555;HTU21D;54385;53.516;49.456;2022-08-01T12:55:03;25.97;52.00
67555;HTU21D;54385;53.516;49.456;2022-08-01T12:57:31;26.15;49.53
67555;HTU21D;54385;53.516;49.456;2022-08-01T13:00:17;26.53;47.80
67555;HTU21D;54385;53.516;49.456;2022-08-01T13:02:46;26.73;47.10
67555;HTU21D;54385;53.516;49.456;2022-08-01T13:05:13;26.86;46.22
67555;HTU21D;54385;53.516;49.456;2022-08-01T13:07:47;26.85;45.51
67555;HTU21D;54385;53.516;49.456;2022-08-01T13:10:25;26.82;45.99
67555;HTU21D;54385;53.516;49.456;2022-08-01T13:12:54;26.81;45.47
67555;HTU21D;54385;53.516;49.456;2022-08-01T13:15:30;26.73;45.78
67555;HTU21D;54385;53.516;49.456;2022-08-01T13:18:01;26.96;45.39
67555;HTU21D;54385;53.516;49.456;2022-08-01T13:20:32;27.57;44.15
67555;HTU21D;54385;53.516;49.456;2022-08-01T13:23:18;27.99;43.45
67555;HTU21D;54385;53.516;49.456;2022-08-01T13:25:53;29.04;41.06
67555;HTU21D;54385;53.516;49.456;2022-08-01T13:28:25;30.01;38.33
67555;HTU21D;54385;53.516;49.456;2022-08-01T13:31:04;30.69;36.11
67555;HTU21D;54385;53.516;49.456;2022-08-01T13:33:51;31.48;34.83
67555;HTU21D;54385;53.516;49.456;2022-08-01T13:36:17;31.90;35.11
67555;HTU21D;54385;53.516;49.456;2022-08-01T13:38:44;32.17;34.44
67555;HTU21D;54385;53.516;49.456;2022-08-01T13:41:28;32.58;33.51
67555;HTU21D;54385;53.516;49.456;2022-08-01T13:43:54;32.16;34.07
67555;HTU21D;54385;53.516;49.456;2022-08-01T13:46:21;31.98;33.83
67555;HTU21D;54385;53.516;49.456;2022-08-01T13:48:47;32.01;33.81
67555;HTU21D;54385;53.516;49.456;2022-08-01T13:51:14;32.05;33.46
67555;HTU21D;54385;53.516;49.456;2022-08-01T13:53:40;32.19;33.38
67555;HTU21D;54385;53.516;49.456;2022-08-01T13:56:07;31.93;33.45
67555;HTU21D;54385;53.516;49.456;2022-08-01T13:58:33;32.17;32.93
67555;HTU21D;54385;53.516;49.456;2022-08-01T14:01:00;31.97;33.21
67555;HTU21D;54385;53.516;49.456;2022-08-01T14:03:26;31.60;33.79
67555;HTU21D;54385;53.516;49.456;2022-08-01T14:05:53;31.34;34.26
67555;HTU21D;54385;53.516;49.456;2022-08-01T14:08:19;30.91;34.89
67555;HTU21D;54385;53.516;49.456;2022-08-01T14:10:45;30.50;35.63
67555;HTU21D;54385;53.516;49.456;2022-08-01T14:13:12;30.71;35.16
67555;HTU21D;54385;53.516;49.456;2022-08-01T14:15:38;30.61;35.21
67555;HTU21D;54385;53.516;49.456;2022-08-01T14:18:05;30.02;36.24
67555;HTU21D;54385;53.516;49.456;2022-08-01T14:20:33;29.70;36.82
67555;HTU21D;54385;53.516;49.456;2022-08-01T14:23:00;29.70;36.79
67555;HTU21D;54385;53.516;49.456;2022-08-01T14:25:26;29.45;37.33
67555;HTU21D;54385;53.516;49.456;2022-08-01T14:27:52;28.86;38.17
67555;HTU21D;54385;53.516;49.456;2022-08-01T14:30:19;28.55;38.66
67555;HTU21D;54385;53.516;49.456;2022-08-01T14:32:45;28.48;38.98
67555;HTU21D;54385;53.516;49.456;2022-08-01T14:35:12;28.69;38.86
67555;HTU21D;54385;53.516;49.456;2022-08-01T14:37:38;28.74;38.72
67555;HTU21D;54385;53.516;49.456;2022-08-01T14:40:06;28.50;38.86
67555;HTU21D;54385;53.516;49.456;2022-08-01T14:42:36;28.20;39.48
67555;HTU21D;54385;53.516;49.456;2022-08-01T14:45:03;27.89;39.85
67555;HTU21D;54385;53.516;49.456;2022-08-01T14:47:30;27.74;40.21
67555;HTU21D;54385;53.516;49.456;2022-08-01T14:49:56;27.61;40.45
67555;HTU21D;54385;53.516;49.456;2022-08-01T14:52:22;27.50;40.51
67555;HTU21D;54385;53.516;49.456;2022-08-01T14:54:49;27.56;40.70
67555;HTU21D;54385;53.516;49.456;2022-08-01T14:57:15;27.49;40.94
67555;HTU21D;54385;53.516;49.456;2022-08-01T14:59:44;27.16;41.49
67555;HTU21D;54385;53.516;49.456;2022-08-01T15:02:10;26.99;41.70
67555;HTU21D;54385;53.516;49.456;2022-08-01T15:04:37;26.86;41.97
67555;HTU21D;54385;53.516;49.456;2022-08-01T15:07:03;26.70;41.86
67555;HTU21D;54385;53.516;49.456;2022-08-01T15:09:30;26.60;42.07
67555;HTU21D;54385;53.516;49.456;2022-08-01T15:11:56;26.52;42.19
67555;HTU21D;54385;53.516;49.456;2022-08-01T15:14:22;26.51;42.03
67555;HTU21D;54385;53.516;49.456;2022-08-01T15:17:07;26.35;42.32
67555;HTU21D;54385;53.516;49.456;2022-08-01T15:19:33;26.31;42.35
67555;HTU21D;54385;53.516;49.456;2022-08-01T15:22:00;26.31;42.19
67555;HTU21D;54385;53.516;49.456;2022-08-01T15:24:26;26.18;42.29
67555;HTU21D;54385;53.516;49.456;2022-08-01T15:26:52;26.05;42.47
67555;HTU21D;54385;53.516;49.456;2022-08-01T15:29:19;25.90;42.78
67555;HTU21D;54385;53.516;49.456;2022-08-01T15:31:45;25.83;43.04
67555;HTU21D;54385;53.516;49.456;2022-08-01T15:34:12;25.82;43.17
67555;HTU21D;54385;53.516;49.456;2022-08-01T15:36:40;25.77;43.36
67555;HTU21D;54385;53.516;49.456;2022-08-01T15:39:24;25.66;43.47
67555;HTU21D;54385;53.516;49.456;2022-08-01T15:42:10;25.61;43.97
67555;HTU21D;54385;53.516;49.456;2022-08-01T15:44:39;25.61;43.55
67555;HTU21D;54385;53.516;49.456;2022-08-01T15:47:06;25.58;43.42
67555;HTU21D;54385;53.516;49.456;2022-08-01T15:49:33;25.56;43.64
67555;HTU21D;54385;53.516;49.456;2022-08-01T15:52:06;25.48;43.90
67555;HTU21D;54385;53.516;49.456;2022-08-01T15:54:32;25.42;44.00
67555;HTU21D;54385;53.516;49.456;2022-08-01T15:56:59;25.29;44.12
67555;HTU21D;54385;53.516;49.456;2022-08-01T15:59:26;25.17;43.96
67555;HTU21D;54385;53.516;49.456;2022-08-01T16:01:54;25.10;44.04